Time;durP1;ratioP1;P1;durP2;ratioP2;P2;SDS_P1;SDS_P2;PMS_P1;PMS_P2;Temp;Humidity;BMP_temperature;BMP_pressure;BME280_temperature;BME280_humidity;BME280_pressure;Samples;Min_cycle;Max_cycle;Signal;HPM_P1;HPM_P2
2022/08/28 00:00:19;;;;;;;80.20;37.80;;;17.70;99.90;;;16.89;100.00;97313.16;4972612;28;20436;-75
2022/08/28 00:02:46;;;;;;;85.72;37.90;;;17.70;99.90;;;16.93;100.00;97314.13;4971890;28;20872;-76
2022/08/28 00:05:16;;;;;;;84.35;39.35;;;17.70;99.90;;;16.94;100.00;97312.25;4971224;28;20838;-75
2022/08/28 00:07:44;;;;;;;94.47;39.80;;;17.70;99.90;;;16.99;100.00;97307.63;4972463;28;20450;-75
2022/08/28 00:10:13;;;;;;;88.93;40.42;;;17.80;99.90;;;17.01;100.00;97307.31;4972313;28;20446;-75
2022/08/28 00:12:39;;;;;;;92.15;39.65;;;17.80;99.90;;;17.06;100.00;97306.47;4972015;28;20849;-75
2022/08/28 00:15:09;;;;;;;86.70;38.83;;;17.90;99.90;;;17.09;100.00;97309.31;4972103;28;20794;-74
2022/08/28 00:17:35;;;;;;;83.28;38.50;;;17.90;99.90;;;17.11;100.00;97306.38;4972025;28;20500;-75
2022/08/28 00:20:04;;;;;;;82.93;37.40;;;17.90;99.90;;;17.12;100.00;97308.75;4972279;28;20483;-74
2022/08/28 00:22:30;;;;;;;86.50;38.88;;;17.90;99.90;;;17.16;100.00;97308.94;4971850;28;20412;-75
2022/08/28 00:24:57;;;;;;;88.88;38.92;;;18.00;99.90;;;17.19;100.00;97316.38;4971741;28;20504;-74
2022/08/28 00:30:09;;;;;;;80.70;36.08;;;18.00;99.90;;;17.25;100.00;97318.66;4972007;28;20406;-74
2022/08/28 00:32:35;;;;;;;79.47;36.17;;;18.00;99.90;;;17.28;100.00;97309.28;4971828;28;20758;-75
2022/08/28 00:35:01;;;;;;;73.90;34.17;;;18.10;99.90;;;17.28;100.00;97315.41;4971593;28;20419;-76
2022/08/28 00:37:28;;;;;;;78.60;34.60;;;18.10;99.90;;;17.28;100.00;97318.09;4971960;28;20408;-75
2022/08/28 00:39:57;;;;;;;68.15;34.25;;;18.10;99.90;;;17.26;100.00;97317.59;4971345;28;20511;-76
2022/08/28 00:42:22;;;;;;;71.50;34.78;;;18.10;99.90;;;17.25;100.00;97312.53;4971456;28;20420;-76
2022/08/28 00:44:49;;;;;;;72.38;35.55;;;18.10;99.90;;;17.26;100.00;97316.78;4971474;28;20427;-75
2022/08/28 00:47:14;;;;;;;73.38;34.03;;;18.10;99.90;;;17.27;100.00;97313.81;4970488;28;20773;-76
2022/08/28 00:49:51;;;;;;;76.65;35.22;;;18.10;99.90;;;17.29;100.00;97316.22;4971788;28;20420;-75
2022/08/28 00:52:20;;;;;;;72.03;34.85;;;18.10;99.90;;;17.28;100.00;97307.41;4971620;28;20409;-75
2022/08/28 00:54:52;;;;;;;79.15;35.63;;;18.10;99.90;;;17.26;100.00;97306.09;4970593;28;20506;-76
2022/08/28 00:57:24;;;;;;;65.93;34.63;;;18.10;99.90;;;17.25;100.00;97309.84;4971695;28;20498;-76
2022/08/28 00:59:51;;;;;;;76.25;35.28;;;18.00;99.90;;;17.25;100.00;97294.59;4971522;28;20566;-73
2022/08/28 01:02:17;;;;;;;78.57;37.00;;;18.00;99.90;;;17.26;100.00;97295.38;4971433;28;20405;-73
2022/08/28 01:04:44;;;;;;;83.78;37.70;;;18.00;99.90;;;17.27;100.00;97294.31;4971138;28;20428;-76
2022/08/28 01:07:13;;;;;;;82.05;37.45;;;18.00;99.90;;;17.27;100.00;97295.09;4971525;28;20400;-74
2022/08/28 01:09:44;;;;;;;72.53;34.17;;;18.10;99.90;;;17.26;100.00;97296.19;4971598;28;20894;-74
2022/08/28 01:12:16;;;;;;;85.27;36.03;;;18.00;99.90;;;17.27;100.00;97299.66;4971435;28;20435;-74
2022/08/28 01:14:47;;;;;;;82.32;35.42;;;18.10;99.90;;;17.27;100.00;97305.00;4971120;28;20404;-74
2022/08/28 01:17:16;;;;;;;90.53;37.10;;;18.00;99.90;;;17.25;100.00;97301.81;4971472;28;20404;-75
2022/08/28 01:19:55;;;;;;;83.13;36.50;;;18.00;99.90;;;17.21;100.00;97312.34;4971526;28;20459;-74
2022/08/28 01:22:28;;;;;;;75.07;35.70;;;18.00;99.90;;;17.16;100.00;97314.28;4971391;28;20897;-75
2022/08/28 01:24:59;;;;;;;80.90;37.17;;;18.00;99.90;;;17.14;100.00;97311.13;4971081;28;20404;-74
2022/08/28 01:27:25;;;;;;;83.73;36.53;;;18.00;99.90;;;17.12;100.00;97308.75;4971416;28;20404;-76
2022/08/28 01:29:51;;;;;;;75.82;35.85;;;17.90;99.90;;;17.06;100.00;97309.13;4971432;28;20400;-75
2022/08/28 01:32:41;;;;;;;90.25;38.53;;;17.90;99.90;;;17.06;100.00;97301.13;4971284;28;20412;-76
2022/08/28 01:35:11;;;;;;;94.53;39.58;;;17.90;99.90;;;17.06;100.00;97304.59;4971303;28;20396;-75
2022/08/28 01:37:38;;;;;;;95.35;39.03;;;17.90;99.90;;;17.05;100.00;97300.31;4970032;28;20450;-75
2022/08/28 01:40:10;;;;;;;95.75;39.88;;;17.90;99.90;;;17.03;100.00;97300.59;4971331;28;20400;-75
2022/08/28 01:42:38;;;;;;;101.35;40.53;;;17.80;99.90;;;17.00;100.00;97292.38;4984253;23;20440;-74
2022/08/28 01:45:09;;;;;;;85.25;37.35;;;17.80;99.90;;;16.96;100.00;97302.88;4970828;28;20405;-74
2022/08/28 01:47:36;;;;;;;93.10;38.47;;;17.80;99.90;;;16.95;100.00;97305.84;4971275;28;20450;-74
2022/08/28 01:50:02;;;;;;;90.60;37.90;;;17.80;99.90;;;16.94;100.00;97302.38;4971241;28;20885;-74
2022/08/28 01:52:30;;;;;;;91.13;38.73;;;17.80;99.90;;;16.93;100.00;97297.31;4976304;28;20409;-74
2022/08/28 01:54:55;;;;;;;84.65;37.85;;;17.80;99.90;;;16.91;100.00;97302.97;4990214;28;20900;-74
2022/08/28 01:57:23;;;;;;;98.80;39.88;;;17.70;99.90;;;16.90;100.00;97303.25;4990540;28;20437;-74
2022/08/28 01:59:49;;;;;;;96.45;39.42;;;17.70;99.90;;;16.89;100.00;97310.47;4990529;28;20417;-74
2022/08/28 02:02:16;;;;;;;91.97;38.30;;;17.70;99.90;;;16.89;100.00;97315.03;4990636;28;20407;-74
2022/08/28 02:04:42;;;;;;;93.43;37.05;;;17.70;99.90;;;16.92;100.00;97307.19;4990102;28;20837;-74
2022/08/28 02:07:08;;;;;;;99.60;39.58;;;17.70;99.90;;;16.97;100.00;97311.69;4993044;28;20411;-74
2022/08/28 02:09:35;;;;;;;95.38;39.92;;;17.80;99.90;;;16.99;100.00;97314.84;4994078;28;20877;-74
2022/08/28 02:12:02;;;;;;;90.43;37.33;;;17.80;99.90;;;17.00;100.00;97313.75;4994026;28;20494;-74
2022/08/28 02:14:29;;;;;;;87.55;36.78;;;17.80;99.90;;;17.03;100.00;97321.22;4993458;28;20403;-74
2022/08/28 02:16:55;;;;;;;88.77;37.00;;;17.90;99.90;;;17.04;100.00;97322.78;4993918;28;20480;-74
2022/08/28 02:19:21;;;;;;;84.90;36.90;;;17.80;99.90;;;17.05;100.00;97318.25;4993835;28;20410;-75
2022/08/28 02:21:48;;;;;;;80.43;36.72;;;17.80;99.90;;;17.04;100.00;97312.09;4993634;28;20403;-74
2022/08/28 02:24:15;;;;;;;90.00;37.35;;;17.80;99.90;;;17.08;100.00;97312.28;4993184;28;20473;-74
2022/08/28 02:26:41;;;;;;;80.55;35.92;;;17.90;99.90;;;17.09;100.00;97306.66;4993609;28;20414;-74
2022/08/28 02:29:07;;;;;;;96.40;40.00;;;17.90;99.90;;;17.11;100.00;97309.03;4993732;28;20414;-74
2022/08/28 02:31:35;;;;;;;91.18;39.17;;;17.90;99.90;;;17.14;100.00;97303.88;4993614;28;20421;-74
2022/08/28 02:34:01;;;;;;;85.45;37.35;;;17.90;99.90;;;17.15;100.00;97302.00;4993059;28;20900;-75
2022/08/28 02:36:27;;;;;;;83.30;37.20;;;18.00;99.90;;;17.18;100.00;97304.09;4993383;28;20505;-75
2022/08/28 02:38:53;;;;;;;82.20;36.10;;;18.00;99.90;;;17.20;100.00;97304.59;4993391;28;20418;-74
2022/08/28 02:41:19;;;;;;;91.70;38.42;;;18.00;99.90;;;17.24;100.00;97314.41;4993425;28;20402;-74
2022/08/28 02:43:45;;;;;;;95.65;38.38;;;18.00;99.90;;;17.25;100.00;97305.28;4992655;28;20418;-74
2022/08/28 02:46:11;;;;;;;122.37;42.00;;;18.00;99.90;;;17.26;100.00;97306.88;4993307;28;20498;-74
2022/08/28 02:48:39;;;;;;;100.10;41.00;;;18.00;99.90;;;17.28;100.00;97304.72;4993356;28;20406;-74
2022/08/28 02:51:10;;;;;;;101.05;40.88;;;18.10;99.90;;;17.29;100.00;97305.50;4993231;28;20465;-74
2022/08/28 02:53:36;;;;;;;98.83;40.30;;;18.10;99.90;;;17.30;100.00;97299.03;4992697;28;20555;-74
2022/08/28 02:56:03;;;;;;;98.50;40.53;;;18.10;99.90;;;17.31;100.00;97309.47;4993220;28;20441;-74
2022/08/28 02:58:31;;;;;;;95.75;39.92;;;18.10;99.90;;;17.32;100.00;97308.38;4992997;28;20415;-75
2022/08/28 03:00:59;;;;;;;98.70;41.33;;;18.10;99.90;;;17.33;100.00;97311.84;4993158;28;20402;-75
2022/08/28 03:03:26;;;;;;;101.32;42.15;;;18.10;99.90;;;17.35;100.00;97301.66;4992425;28;20425;-74
2022/08/28 03:05:54;;;;;;;98.20;40.40;;;18.10;99.90;;;17.34;100.00;97298.19;4992989;28;20486;-74
2022/08/28 03:08:20;;;;;;;93.88;40.60;;;18.10;99.90;;;17.34;100.00;97303.53;4992925;28;20445;-74
2022/08/28 03:10:46;;;;;;;89.10;39.05;;;18.10;99.90;;;17.35;100.00;97304.31;4992959;28;20414;-75
2022/08/28 03:13:12;;;;;;;96.60;40.58;;;18.10;99.90;;;17.36;100.00;97304.03;4992190;28;20819;-75
2022/08/28 03:15:42;;;;;;;95.83;40.50;;;18.20;99.90;;;17.37;100.00;97305.59;4992864;28;20474;-75
2022/08/28 03:18:08;;;;;;;101.05;40.85;;;18.10;99.90;;;17.39;100.00;97311.44;4992125;28;20805;-74
2022/08/28 03:20:34;;;;;;;106.27;42.33;;;18.20;99.90;;;17.40;100.00;97304.22;4992637;28;20478;-75
2022/08/28 03:25:46;;;;;;;101.80;40.58;;;18.20;99.90;;;17.45;100.00;97306.00;4992598;28;20923;-75
2022/08/28 03:28:12;;;;;;;100.30;39.33;;;18.20;99.90;;;17.45;100.00;97306.00;4992581;28;20509;-75
2022/08/28 03:30:38;;;;;;;104.15;41.10;;;18.20;99.90;;;17.46;100.00;97307.59;4992557;28;20407;-75
2022/08/28 03:33:04;;;;;;;103.25;41.70;;;18.30;99.90;;;17.45;100.00;97312.13;4991920;28;20482;-75
2022/08/28 03:35:31;;;;;;;105.35;41.53;;;18.30;99.90;;;17.46;100.00;97313.72;4992619;28;20437;-75
2022/08/28 03:37:57;;;;;;;104.07;41.47;;;18.30;99.90;;;17.48;100.00;97308.09;4992399;28;20494;-75
2022/08/28 03:40:24;;;;;;;105.00;42.43;;;18.30;99.90;;;17.48;100.00;97316.91;4992344;28;20817;-74
2022/08/28 03:42:50;;;;;;;101.55;42.50;;;18.30;99.90;;;17.47;100.00;97312.66;4991470;28;20418;-74
2022/08/28 03:45:16;;;;;;;106.70;42.40;;;18.30;99.90;;;17.48;100.00;97316.91;4992229;28;20413;-75
2022/08/28 03:47:42;;;;;;;100.20;42.47;;;18.30;99.90;;;17.48;100.00;97311.56;4992151;28;20407;-74
2022/08/28 03:50:10;;;;;;;103.63;41.38;;;18.30;99.90;;;17.48;100.00;97314.25;4991985;28;20514;-75
2022/08/28 03:52:37;;;;;;;104.00;41.07;;;18.20;99.90;;;17.48;100.00;97319.59;4991943;28;20405;-75
2022/08/28 03:55:03;;;;;;;107.32;41.75;;;18.20;99.90;;;17.48;100.00;97314.25;4991659;28;20889;-74
2022/08/28 03:57:31;;;;;;;102.87;40.30;;;18.30;99.90;;;17.48;100.00;97316.91;4992061;28;20429;-74
2022/08/28 03:59:57;;;;;;;105.88;41.67;;;18.30;99.90;;;17.49;100.00;97317.72;4991956;28;20494;-74
2022/08/28 04:02:23;;;;;;;112.60;41.92;;;18.30;99.90;;;17.49;100.00;97313.16;4991667;28;20522;-74
2022/08/28 04:04:49;;;;;;;107.03;42.97;;;18.30;99.90;;;17.50;100.00;97305.91;4991370;28;20422;-74
2022/08/28 04:07:16;;;;;;;107.32;43.72;;;18.30;99.90;;;17.48;100.00;97316.91;4991851;28;20418;-74
2022/08/28 04:09:42;;;;;;;111.95;43.67;;;18.30;99.90;;;17.47;100.00;97320.66;4991875;28;20433;-74
2022/08/28 04:12:09;;;;;;;115.40;44.50;;;18.20;99.90;;;17.47;100.00;97312.66;4974158;28;20425;-75
2022/08/28 04:14:36;;;;;;;106.28;42.13;;;18.20;99.90;;;17.49;100.00;97312.34;4991244;28;20402;-75
2022/08/28 04:17:03;;;;;;;110.97;43.85;;;18.20;99.90;;;17.47;100.00;97318.00;4991729;28;20446;-74
2022/08/28 04:19:29;;;;;;;98.67;42.33;;;18.20;99.90;;;17.48;100.00;97324.16;4974172;28;20824;-74
2022/08/28 04:21:55;;;;;;;112.85;43.78;;;18.30;99.90;;;17.48;100.00;97318.78;4991417;28;20418;-74
2022/08/28 04:24:21;;;;;;;111.13;43.60;;;18.30;99.90;;;17.48;100.00;97319.59;4991001;28;20414;-74
2022/08/28 04:26:47;;;;;;;111.95;44.30;;;18.30;99.90;;;17.46;100.00;97319.09;4991408;28;20410;-74
2022/08/28 04:29:14;;;;;;;108.40;44.00;;;18.20;99.90;;;17.46;100.00;97321.75;4990837;28;20406;-75
2022/08/28 04:31:42;;;;;;;108.47;43.28;;;18.30;99.90;;;17.45;100.00;97320.16;4991358;28;20764;-74
2022/08/28 04:34:09;;;;;;;107.45;42.20;;;18.30;99.90;;;17.48;100.00;97321.47;4990750;28;20411;-74
2022/08/28 04:36:35;;;;;;;110.68;43.35;;;18.20;99.90;;;17.48;100.00;97318.78;4991289;28;20529;-75
2022/08/28 04:39:07;;;;;;;103.70;43.20;;;18.30;99.90;;;17.44;100.00;97328.53;4991387;28;20405;-74
2022/08/28 04:41:35;;;;;;;117.68;46.10;;;18.20;99.90;;;17.47;100.00;97325.22;4991331;28;20414;-75
2022/08/28 04:44:01;;;;;;;118.03;46.03;;;18.20;99.90;;;17.48;100.00;97321.47;4990676;28;20414;-75
2022/08/28 04:46:27;;;;;;;103.95;42.72;;;18.30;99.90;;;17.49;100.00;97326.53;4991072;28;20417;-74
2022/08/28 04:48:55;;;;;;;108.80;43.63;;;18.30;99.90;;;17.48;100.00;97324.16;4991117;28;20407;-74
2022/08/28 04:51:21;;;;;;;114.15;43.28;;;18.20;99.90;;;17.47;100.00;97325.22;4991289;28;20406;-75
2022/08/28 04:53:47;;;;;;;118.13;44.13;;;18.30;99.90;;;17.48;100.00;97329.50;4990619;28;20818;-75
2022/08/28 04:56:14;;;;;;;105.28;42.28;;;18.30;99.90;;;17.47;100.00;97328.69;4991251;28;20413;-74
2022/08/28 04:58:42;;;;;;;105.72;42.45;;;18.30;99.90;;;17.48;100.00;97332.19;4991142;28;20457;-75
2022/08/28 05:01:12;;;;;;;111.17;42.23;;;18.30;99.90;;;17.49;100.00;97331.09;4991105;28;20776;-74
2022/08/28 05:03:38;;;;;;;104.35;42.30;;;18.20;99.90;;;17.49;100.00;97328.41;4990317;28;20422;-75
2022/08/28 05:06:07;;;;;;;107.63;42.35;;;18.30;99.90;;;17.50;100.00;97332.69;4991071;28;20407;-75
2022/08/28 05:08:33;;;;;;;105.88;41.80;;;18.30;99.90;;;17.49;100.00;97331.88;4990935;28;20418;-75
2022/08/28 05:11:10;;;;;;;110.03;42.10;;;18.30;99.90;;;17.50;100.00;97336.16;4990948;28;20407;-75
2022/08/28 05:13:36;;;;;;;109.78;43.47;;;18.30;99.90;;;17.50;100.00;97341.50;4990299;28;20398;-76
2022/08/28 05:16:03;;;;;;;98.27;40.27;;;18.30;99.90;;;17.51;100.00;97339.63;4991003;28;20409;-75
2022/08/28 05:18:29;;;;;;;96.23;39.90;;;18.30;99.90;;;17.52;100.00;97336.63;4990805;28;20449;-75
2022/08/28 05:20:55;;;;;;;95.90;39.20;;;18.30;99.90;;;17.54;100.00;97341.69;4990895;28;20419;-76
2022/08/28 05:23:22;;;;;;;108.15;41.38;;;18.30;99.90;;;17.55;100.00;97348.63;4990209;28;20418;-76
2022/08/28 05:25:49;;;;;;;91.68;40.05;;;18.30;99.90;;;17.54;100.00;97341.69;4990789;28;20410;-76
2022/08/28 05:28:16;;;;;;;101.05;41.10;;;18.30;99.90;;;17.54;100.00;97347.84;4990843;28;20769;-76
2022/08/28 05:30:43;;;;;;;97.97;39.15;;;18.30;99.90;;;17.55;100.00;97349.44;4990877;28;20406;-76
2022/08/28 05:33:12;;;;;;;94.10;39.35;;;18.30;99.90;;;17.54;100.00;97342.47;4990178;28;20398;-76
2022/08/28 05:35:42;;;;;;;95.85;39.53;;;18.30;99.90;;;17.56;100.00;97343.00;4990796;28;20478;-75
2022/08/28 05:38:10;;;;;;;94.55;40.60;;;18.30;99.90;;;17.55;100.00;97341.41;4990854;28;20426;-76
2022/08/28 05:40:42;;;;;;;94.70;38.70;;;18.30;99.90;;;17.59;100.00;97349.66;4991077;28;20410;-76
2022/08/28 05:43:09;;;;;;;100.38;39.67;;;18.30;99.90;;;17.61;100.00;97347.44;4993864;28;20438;-76
2022/08/28 05:45:35;;;;;;;102.45;40.45;;;18.40;99.90;;;17.63;100.00;97353.31;4994565;28;20406;-76
2022/08/28 05:48:02;;;;;;;96.40;39.92;;;18.40;99.90;;;17.64;100.00;97344.22;4994432;28;20461;-76
2022/08/28 05:50:29;;;;;;;91.10;39.40;;;18.40;99.90;;;17.61;100.00;97355.47;4994307;28;20501;-76
2022/08/28 05:52:55;;;;;;;95.07;40.13;;;18.40;99.90;;;17.62;100.00;97355.22;4993883;28;20788;-76
2022/08/28 05:55:21;;;;;;;90.25;39.42;;;18.40;99.90;;;17.62;100.00;97355.22;4994346;28;20417;-76
2022/08/28 05:57:49;;;;;;;97.45;40.88;;;18.40;99.90;;;17.64;100.00;97350.38;4994296;28;20486;-76
2022/08/28 06:00:15;;;;;;;94.37;39.03;;;18.40;99.90;;;17.66;100.00;97358.09;4994169;28;20505;-76
2022/08/28 06:02:41;;;;;;;89.32;38.05;;;18.40;99.90;;;17.67;100.00;97362.34;4993710;28;20414;-75
2022/08/28 06:05:08;;;;;;;85.53;37.38;;;18.40;99.90;;;17.68;100.00;97359.38;4993915;28;20923;-76
2022/08/28 06:07:34;;;;;;;83.13;37.25;;;18.40;99.90;;;17.67;100.00;97360.47;4994024;28;20896;-76
2022/08/28 06:10:00;;;;;;;84.45;37.78;;;18.40;99.90;;;17.66;100.00;97360.78;4994045;28;20410;-76
2022/08/28 06:12:26;;;;;;;82.45;36.65;;;18.40;99.90;;;17.68;100.00;97371.97;4993819;28;20406;-76
2022/08/28 06:14:53;;;;;;;82.63;36.42;;;18.40;99.90;;;17.70;100.00;97370.59;4993519;28;20402;-76
2022/08/28 06:17:21;;;;;;;84.35;37.60;;;18.50;99.90;;;17.70;100.00;97359.88;4993879;28;20503;-76
2022/08/28 06:19:47;;;;;;;79.13;36.92;;;18.40;99.90;;;17.70;100.00;97370.59;4993849;28;20972;-76
2022/08/28 06:22:14;;;;;;;87.93;37.42;;;18.40;99.90;;;17.72;100.00;97367.63;4993727;28;20425;-76
2022/08/28 06:24:40;;;;;;;87.45;36.58;;;18.50;99.90;;;17.72;100.00;97365.75;4989151;28;20534;-76
2022/08/28 06:27:06;;;;;;;73.38;34.15;;;18.50;99.90;;;17.73;100.00;97372.69;4993123;28;20796;-76
2022/08/28 06:29:32;;;;;;;76.72;35.50;;;18.50;99.90;;;17.77;100.00;97373.66;4993453;28;20822;-76
2022/08/28 06:32:03;;;;;;;69.85;34.70;;;18.50;99.90;;;17.79;100.00;97374.16;4993572;28;20768;-76
2022/08/28 06:34:29;;;;;;;70.95;33.38;;;18.50;99.90;;;17.83;100.00;97374.34;4990743;28;20792;-75
2022/08/28 06:36:55;;;;;;;69.38;33.60;;;18.60;99.90;;;17.81;100.00;97379.22;4993472;28;20399;-74
2022/08/28 06:39:22;;;;;;;69.05;33.78;;;18.60;99.90;;;17.83;100.00;97384.25;4993385;28;20900;-75
2022/08/28 06:41:48;;;;;;;60.00;30.98;;;18.60;99.90;;;17.84;100.00;97381.28;4993444;28;20410;-73
2022/08/28 06:44:18;;;;;;;63.67;31.63;;;18.60;99.90;;;17.86;100.00;97383.69;4978328;28;20800;-75
2022/08/28 06:46:45;;;;;;;54.22;29.27;;;18.60;99.90;;;17.86;100.00;97387.16;4993219;28;20399;-76
2022/08/28 06:49:13;;;;;;;59.33;29.83;;;18.60;99.90;;;17.89;100.00;97388.47;4993298;28;20931;-71
2022/08/28 06:51:40;;;;;;;50.33;28.20;;;18.60;99.90;;;17.91;100.00;97387.03;4991805;28;20480;-72
2022/08/28 06:54:06;;;;;;;51.30;28.13;;;18.60;99.90;;;17.92;100.00;97388.63;4991868;28;20402;-72
2022/08/28 06:56:32;;;;;;;46.72;27.65;;;18.70;99.90;;;17.89;100.00;97391.94;4993254;28;20505;-72
2022/08/28 06:58:59;;;;;;;48.72;27.92;;;18.60;99.90;;;17.95;100.00;97392.63;4993160;28;20481;-72
2022/08/28 07:01:27;;;;;;;49.05;27.73;;;18.70;99.90;;;17.94;100.00;97391.03;4989630;28;20425;-72
2022/08/28 07:03:57;;;;;;;52.03;27.48;;;18.70;99.90;;;17.99;100.00;97389.03;4983909;28;20422;-72
2022/08/28 07:06:25;;;;;;;55.07;27.27;;;18.70;99.90;;;18.02;100.00;97399.16;4993018;28;20478;-72
2022/08/28 07:08:51;;;;;;;55.50;27.17;;;18.80;99.90;;;18.06;100.00;97399.34;4993002;28;20399;-72
2022/08/28 07:11:21;;;;;;;46.03;26.65;;;18.80;99.90;;;18.10;100.00;97403.03;4992922;28;20771;-72
2022/08/28 07:13:48;;;;;;;47.40;27.27;;;18.80;99.90;;;18.11;100.00;97401.94;4992224;28;20410;-72
2022/08/28 07:16:16;;;;;;;47.80;27.43;;;18.80;99.90;;;18.11;100.00;97404.63;4992727;28;20896;-72
2022/08/28 07:18:43;;;;;;;53.20;29.17;;;18.90;99.90;;;18.16;100.00;97415.22;4992763;28;20767;-72
2022/08/28 07:21:09;;;;;;;41.03;26.88;;;18.90;99.90;;;18.12;100.00;97409.66;4992700;28;20410;-72
2022/08/28 07:23:38;;;;;;;46.17;26.73;;;18.90;99.90;;;18.15;100.00;97410.94;4992032;28;20429;-73
2022/08/28 07:26:08;;;;;;;50.87;28.50;;;18.90;99.90;;;18.12;100.00;97412.34;4992732;28;20911;-73
2022/08/28 07:28:34;;;;;;;46.47;25.48;;;18.90;99.90;;;18.18;100.00;97410.38;4992540;28;20880;-74
2022/08/28 07:31:05;;;;;;;45.25;26.35;;;18.90;99.90;;;18.23;100.00;97406.78;4992439;28;20892;-72
2022/08/28 07:33:32;;;;;;;46.10;25.33;;;18.90;99.90;;;18.28;100.00;97404.78;4992093;28;20445;-72
2022/08/28 07:35:59;;;;;;;46.70;27.25;;;19.00;99.90;;;18.28;100.00;97412.03;4991342;28;20836;-72
2022/08/28 07:38:26;;;;;;;44.75;26.80;;;19.00;99.90;;;18.26;100.00;97409.66;4992466;28;20485;-72
2022/08/28 07:40:54;;;;;;;43.45;26.35;;;19.00;99.90;;;18.21;100.00;97422.34;4992566;28;20406;-72
2022/08/28 07:46:07;;;;;;;37.55;23.70;;;19.00;99.90;;;18.34;100.00;97424.25;4973047;28;20841;-73
2022/08/28 07:48:34;;;;;;;38.75;23.70;;;19.00;99.90;;;18.37;100.00;97424.44;4972733;28;20821;-74
2022/08/28 07:51:00;;;;;;;43.00;24.10;;;19.10;99.90;;;18.40;100.00;97431.88;4972919;28;20431;-72
2022/08/28 07:53:26;;;;;;;42.78;23.58;;;19.10;99.90;;;18.43;100.00;97433.94;4982227;28;20409;-73
2022/08/28 07:55:54;;;;;;;42.28;24.52;;;19.10;99.90;;;18.48;100.00;97436.53;4992088;28;20864;-73
2022/08/28 07:58:21;;;;;;;38.92;23.08;;;19.20;99.90;;;18.52;100.00;97439.41;4992147;28;20465;-72
2022/08/28 08:00:47;;;;;;;41.40;23.63;;;19.20;99.90;;;18.54;100.00;97427.28;4992082;28;20399;-73
2022/08/28 08:03:13;;;;;;;38.35;23.73;;;19.30;99.90;;;18.58;100.00;97430.16;4991417;28;20938;-73
2022/08/28 08:05:40;;;;;;;38.03;23.17;;;19.30;99.90;;;18.56;100.00;97437.75;4991869;28;20414;-73
2022/08/28 08:08:06;;;;;;;38.10;22.50;;;19.30;99.90;;;18.58;100.00;97432.84;4991973;28;20773;-73
2022/08/28 08:10:32;;;;;;;42.42;23.67;;;19.30;99.90;;;18.60;100.00;97445.97;4991951;28;20489;-73
2022/08/28 08:12:59;;;;;;;39.97;23.50;;;19.30;99.90;;;18.65;100.00;97443.97;4991100;28;20762;-73
2022/08/28 08:15:25;;;;;;;37.70;23.20;;;19.30;99.90;;;18.70;100.00;97445.75;4991653;28;20406;-73
2022/08/28 08:17:51;;;;;;;36.50;23.42;;;19.40;99.90;;;18.78;100.00;97450.41;4991637;28;20433;-73
2022/08/28 08:20:17;;;;;;;38.97;22.77;;;19.40;99.90;;;18.82;100.00;97451.38;4991690;28;20422;-73
2022/08/28 08:22:43;;;;;;;32.72;21.05;;;19.50;99.90;;;18.87;100.00;97457.41;4991202;28;20399;-73
2022/08/28 08:25:09;;;;;;;35.03;21.90;;;19.60;99.90;;;18.88;100.00;97453.63;4991090;28;20418;-73
2022/08/28 08:27:35;;;;;;;32.97;21.20;;;19.60;99.90;;;18.90;100.00;97461.38;4991601;28;20404;-75
2022/08/28 08:30:04;;;;;;;31.33;20.95;;;19.60;99.90;;;18.92;100.00;97465.38;4990898;28;20643;-75
2022/08/28 08:32:30;;;;;;;32.00;21.30;;;19.60;99.90;;;18.95;100.00;97467.44;4990818;28;20406;-73
2022/08/28 08:34:56;;;;;;;32.72;21.15;;;19.70;99.90;;;18.96;100.00;97465.53;4989725;28;20411;-75
2022/08/28 08:37:22;;;;;;;36.30;21.55;;;19.70;99.90;;;18.87;100.00;97467.34;4991334;28;20406;-74
2022/08/28 08:39:49;;;;;;;33.20;21.70;;;19.60;99.90;;;18.87;100.00;97473.50;4989932;28;20434;-75
2022/08/28 08:42:23;;;;;;;27.65;20.13;;;19.60;99.90;;;18.97;100.00;97469.00;4988393;28;20418;-74
2022/08/28 08:44:51;;;;;;;29.77;19.65;;;19.70;99.90;;;19.04;100.00;97477.44;4987806;28;20422;-75
2022/08/28 08:47:29;;;;;;;28.25;20.33;;;19.70;99.90;;;19.03;100.00;97475.84;4989126;28;20927;-75
2022/08/28 08:50:00;;;;;;;28.50;20.00;;;19.70;99.90;;;19.02;100.00;97471.59;4990679;28;20476;-74
2022/08/28 08:52:35;;;;;;;29.98;19.55;;;19.70;99.90;;;19.09;100.00;97480.81;4990137;28;20407;-74
2022/08/28 08:55:13;;;;;;;26.85;18.98;;;19.70;99.90;;;19.18;100.00;97483.56;4993119;28;20402;-74
2022/08/28 08:57:41;;;;;;;32.28;19.55;;;19.80;99.90;;;19.22;100.00;97479.97;4999385;28;20889;-75
2022/08/28 09:00:10;;;;;;;28.17;19.83;;;19.90;99.90;;;19.25;100.00;97483.91;4996848;28;20402;-74
2022/08/28 09:02:44;;;;;;;26.75;18.48;;;19.90;99.90;;;19.29;100.00;97488.41;4999639;28;20416;-76
2022/08/28 09:05:17;;;;;;;26.33;18.10;;;19.90;99.90;;;19.39;100.00;97490.06;4996669;28;20759;-74
2022/08/28 09:07:55;;;;;;;30.85;18.95;;;20.00;99.90;;;19.47;100.00;97486.63;5001439;28;20401;-74
2022/08/28 09:10:22;;;;;;;28.73;19.13;;;20.10;99.90;;;19.54;100.00;97481.66;5006553;28;20925;-73
2022/08/28 09:12:58;;;;;;;25.67;17.92;;;20.20;99.90;;;19.61;100.00;97487.38;5010018;28;20906;-73
2022/08/28 09:15:30;;;;;;;26.08;18.80;;;20.20;99.90;;;19.69;100.00;97489.34;5010650;28;20404;-73
2022/08/28 09:18:12;;;;;;;27.23;18.30;;;20.30;99.90;;;19.68;100.00;97493.13;5014653;28;20479;-73
2022/08/28 09:20:40;;;;;;;27.65;18.42;;;20.30;99.90;;;19.75;100.00;97489.19;5014653;28;20905;-72
2022/08/28 09:23:07;;;;;;;27.23;16.55;;;20.50;99.90;;;19.81;100.00;97491.44;4996383;28;20488;-72
2022/08/28 09:25:51;;;;;;;25.85;17.55;;;20.40;99.90;;;19.91;100.00;97491.19;5014436;28;20432;-73
2022/08/28 09:28:22;;;;;;;27.13;17.33;;;20.60;99.90;;;20.06;100.00;97488.09;5014399;28;20777;-73
2022/08/28 09:31:00;;;;;;;27.23;18.17;;;20.70;99.90;;;20.02;100.00;97486.31;5010510;28;20405;-76
2022/08/28 09:33:32;;;;;;;25.27;17.02;;;20.70;99.90;;;20.06;100.00;97493.47;4986442;28;20427;-74
2022/08/28 09:36:30;;;;;;;25.48;18.50;;;20.60;99.90;;;20.10;100.00;97491.75;4994015;28;20485;-75
2022/08/28 09:39:11;;;;;;;28.10;19.40;;;20.70;99.90;;;20.02;100.00;97486.31;4994224;28;20406;-74
2022/08/28 09:44:32;;;;;;;23.30;15.68;;;20.90;99.90;;;20.45;100.00;97486.50;4993533;28;20481;-72
2022/08/28 09:46:58;;;;;;;21.35;16.25;;;21.00;99.90;;;20.44;100.00;97488.44;4982406;28;21031;-74
2022/08/28 09:49:28;;;;;;;22.75;16.10;;;21.10;99.90;;;20.58;100.00;97492.91;4993135;28;20450;-73
2022/08/28 09:51:58;;;;;;;21.95;14.80;;;21.10;99.90;;;20.60;100.00;97485.31;4993787;28;20399;-73
2022/08/28 09:54:31;;;;;;;23.17;14.20;;;21.20;99.90;;;20.72;100.00;97490.88;4992829;28;20407;-73
2022/08/28 09:56:58;;;;;;;18.80;13.25;;;21.30;99.90;;;20.77;100.00;97493.41;4993982;28;20915;-72
2022/08/28 09:59:26;;;;;;;22.60;15.33;;;21.40;99.90;;;20.83;100.00;97489.44;4993659;28;20489;-73
2022/08/28 10:02:26;;;;;;;19.33;13.82;;;21.40;99.90;;;20.82;100.00;97496.72;4989448;28;20505;-74
2022/08/28 10:05:01;;;;;;;25.77;16.02;;;21.50;99.90;;;20.90;100.00;97497.84;4992684;28;21029;-73
2022/08/28 10:07:38;;;;;;;19.73;14.90;;;21.60;99.90;;;20.81;100.00;97495.16;4991811;28;20414;-74
2022/08/28 10:10:25;;;;;;;20.95;13.88;;;21.40;99.90;;;20.66;100.00;97492.91;4992922;28;20406;-75
2022/08/28 10:13:04;;;;;;;19.30;14.50;;;21.30;99.90;;;20.66;100.00;97494.81;4993323;28;20405;-75